createdAt,value
2019-04-03T00:01:43.126Z,100802.80
2019-04-03T00:03:50.523Z,100800.17
2019-04-03T00:05:57.889Z,100790.05
2019-04-03T00:08:06.397Z,100791.17
2019-04-03T00:10:15.139Z,100787.42
2019-04-03T00:12:23.111Z,100792.17
2019-04-03T00:14:30.482Z,100797.41
2019-04-03T00:16:37.923Z,100786.57
2019-04-03T00:18:46.795Z,100782.57
2019-04-03T00:20:54.331Z,100787.50
2019-04-03T00:23:01.765Z,100787.56
2019-04-03T00:25:09.771Z,100779.73
2019-04-03T00:27:17.137Z,100775.81
2019-04-03T00:29:24.583Z,100773.58
2019-04-03T00:31:31.984Z,100774.14
2019-04-03T00:33:39.373Z,100767.91
2019-04-03T00:35:46.801Z,100767.03
2019-04-03T00:37:54.187Z,100763.59
2019-04-03T00:40:01.526Z,100761.89
2019-04-03T00:42:08.904Z,100754.07
2019-04-03T00:44:17.164Z,100765.12
2019-04-03T00:46:25.174Z,100760.20
2019-04-03T00:48:32.687Z,100757.61
2019-04-03T00:50:41.018Z,100753.00
2019-04-03T00:52:48.399Z,100752.51
2019-04-03T00:54:56.629Z,100758.14
2019-04-03T00:57:04.600Z,100752.55
2019-04-03T00:59:11.961Z,100748.23
2019-04-03T01:01:19.405Z,100748.23
2019-04-03T01:03:28.246Z,100748.16
2019-04-03T01:05:35.991Z,100742.36
2019-04-03T01:07:44.537Z,100748.69
2019-04-03T01:09:52.060Z,100743.27
2019-04-03T01:12:00.865Z,100742.36
2019-04-03T01:14:08.650Z,100745.96
2019-04-03T01:16:16.046Z,100739.06
2019-04-03T01:18:23.436Z,100735.23
2019-04-03T01:20:30.839Z,100732.61
2019-04-03T01:22:38.374Z,100732.16
2019-04-03T01:24:45.772Z,100726.77
2019-04-03T01:26:53.343Z,100730.84
2019-04-03T01:29:00.837Z,100727.38
2019-04-03T01:31:08.246Z,100727.41
2019-04-03T01:33:16.483Z,100725.28
2019-04-03T01:35:24.531Z,100723.52
2019-04-03T01:37:31.890Z,100724.50
2019-04-03T01:39:39.229Z,100712.92
2019-04-03T01:41:46.607Z,100709.39
2019-04-03T01:43:54.388Z,100706.12
2019-04-03T01:46:02.248Z,100706.91
2019-04-03T01:48:09.634Z,100705.27
2019-04-03T01:50:17.045Z,100711.84
2019-04-03T01:52:24.402Z,100704.19
2019-04-03T01:54:33.264Z,100702.56
2019-04-03T01:56:40.934Z,100700.80
2019-04-03T01:58:48.385Z,100707.38
2019-04-03T02:00:55.781Z,100693.08
2019-04-03T02:03:03.165Z,100703.61
2019-04-03T02:05:12.795Z,100702.40
2019-04-03T02:07:20.761Z,100691.21
2019-04-03T02:09:28.142Z,100693.41
2019-04-03T02:11:35.624Z,100691.21
2019-04-03T02:13:42.969Z,100690.55
2019-04-03T02:15:52.126Z,100689.31
2019-04-03T02:17:59.427Z,100687.13
2019-04-03T02:20:07.251Z,100683.84
2019-04-03T02:22:14.639Z,100685.25
2019-04-03T02:24:21.959Z,100679.20
2019-04-03T02:26:30.663Z,100678.84
2019-04-03T02:28:38.338Z,100679.84
2019-04-03T02:30:47.182Z,100675.01
2019-04-03T02:32:56.642Z,100680.30
2019-04-03T02:35:06.544Z,100668.27
2019-04-03T02:37:16.512Z,100673.23
2019-04-03T02:39:25.723Z,100676.69
2019-04-03T02:41:31.243Z,100673.71
2019-04-03T02:43:38.871Z,100666.27
2019-04-03T02:45:46.442Z,100668.18
2019-04-03T02:47:53.818Z,100678.64
2019-04-03T02:50:01.626Z,100672.59
2019-04-03T02:52:09.624Z,100675.17
2019-04-03T02:54:34.671Z,100670.06
2019-04-03T02:56:40.691Z,100670.16
2019-04-03T02:58:48.197Z,100670.55
2019-04-03T03:00:55.652Z,100666.75
2019-04-03T03:03:03.084Z,100671.49
2019-04-03T03:05:10.725Z,100667.23
2019-04-03T03:07:18.599Z,100668.15
2019-04-03T03:09:26.508Z,100663.41
2019-04-03T03:11:34.249Z,100661.61
2019-04-03T03:13:41.678Z,100656.11
2019-04-03T03:15:49.774Z,100663.55
2019-04-03T03:17:58.170Z,100661.34
2019-04-03T03:20:08.355Z,100660.85
2019-04-03T03:22:18.011Z,100658.87
2019-04-03T03:24:29.420Z,100658.38
2019-04-03T03:26:37.803Z,100654.07
2019-04-03T03:28:47.392Z,100651.36
2019-04-03T03:31:01.469Z,100654.34
2019-04-03T03:33:24.247Z,100655.26
2019-04-03T03:35:19.841Z,100651.91
2019-04-03T03:37:23.702Z,100652.42
2019-04-03T03:39:32.903Z,100661.00
2019-04-03T03:41:40.669Z,100659.44
2019-04-03T03:43:48.521Z,100663.36
2019-04-03T03:45:56.874Z,100660.16
2019-04-03T03:48:08.519Z,100670.16
2019-04-03T03:50:14.501Z,100667.42
2019-04-03T03:52:22.449Z,100664.08
2019-04-03T03:54:31.785Z,100661.80
2019-04-03T03:56:39.882Z,100661.46
2019-04-03T03:58:48.209Z,100662.42
2019-04-03T04:00:59.510Z,100662.42
2019-04-03T04:03:08.947Z,100662.54
2019-04-03T04:05:15.410Z,100658.63
2019-04-03T04:07:24.554Z,100661.72
2019-04-03T04:09:32.583Z,100658.97
2019-04-03T04:11:40.231Z,100659.42
2019-04-03T04:13:49.679Z,100665.13
2019-04-03T04:15:57.665Z,100663.50
2019-04-03T04:18:06.133Z,100665.41
2019-04-03T04:20:13.750Z,100660.66
2019-04-03T04:22:23.024Z,100667.87
2019-04-03T04:24:30.815Z,100660.09
2019-04-03T04:26:38.644Z,100658.65
2019-04-03T04:28:46.346Z,100670.65
2019-04-03T04:30:54.264Z,100662.08
2019-04-03T04:33:01.925Z,100662.88
2019-04-03T04:35:11.044Z,100667.21
2019-04-03T04:37:18.727Z,100665.42
2019-04-03T04:39:26.593Z,100665.41
2019-04-03T04:41:35.502Z,100667.56
2019-04-03T04:43:43.263Z,100669.52
2019-04-03T04:45:50.985Z,100671.91
2019-04-03T04:48:00.309Z,100667.87
2019-04-03T04:50:08.309Z,100671.25
2019-04-03T04:52:15.836Z,100660.78
2019-04-03T04:54:23.578Z,100663.05
2019-04-03T04:56:31.090Z,100669.09
2019-04-03T04:58:38.677Z,100664.30
2019-04-03T05:00:47.462Z,100663.34
2019-04-03T05:02:55.576Z,100662.52
2019-04-03T05:05:03.182Z,100664.64
2019-04-03T05:07:10.569Z,100658.34
2019-04-03T05:09:17.937Z,100660.50
2019-04-03T05:11:25.369Z,100666.55
2019-04-03T05:13:32.798Z,100659.59
2019-04-03T05:15:40.248Z,100662.97
2019-04-03T05:17:50.425Z,100661.91
2019-04-03T05:19:57.149Z,100660.12
2019-04-03T05:22:04.930Z,100656.66
2019-04-03T05:24:13.723Z,100666.05
2019-04-03T05:26:21.895Z,100666.84
2019-04-03T05:28:29.442Z,100654.56
2019-04-03T05:30:38.675Z,100659.27
2019-04-03T05:32:46.148Z,100654.69
2019-04-03T05:34:53.697Z,100659.73
2019-04-03T05:37:01.227Z,100657.11
2019-04-03T05:39:10.394Z,100668.81
2019-04-03T05:41:17.820Z,100659.66
2019-04-03T05:43:25.389Z,100653.80
2019-04-03T05:45:34.584Z,100659.75
2019-04-03T05:47:41.861Z,100654.91
2019-04-03T05:49:51.249Z,100650.50
2019-04-03T05:51:58.738Z,100648.96
2019-04-03T05:54:08.014Z,100664.53
2019-04-03T05:56:15.222Z,100650.56
2019-04-03T05:58:23.537Z,100660.50
2019-04-03T06:00:30.940Z,100648.11
2019-04-03T06:02:38.489Z,100654.16
2019-04-03T06:04:46.050Z,100649.47
2019-04-03T06:06:53.625Z,100650.64
2019-04-03T06:09:01.544Z,100645.70
2019-04-03T06:11:09.789Z,100651.22
2019-04-03T06:13:17.625Z,100647.33
2019-04-03T06:15:25.261Z,100653.09
2019-04-03T06:17:32.686Z,100650.80
2019-04-03T06:19:40.325Z,100653.23
2019-04-03T06:21:48.044Z,100648.81
2019-04-03T06:23:55.613Z,100646.66
2019-04-03T06:26:03.739Z,100647.22
2019-04-03T06:28:13.391Z,100636.95
2019-04-03T06:30:20.900Z,100650.16
2019-04-03T06:32:29.171Z,100642.28
2019-04-03T06:34:38.646Z,100635.11
2019-04-03T06:36:46.689Z,100636.13
2019-04-03T06:38:57.039Z,100639.86
2019-04-03T06:41:07.794Z,100639.39
2019-04-03T06:43:15.351Z,100645.41
2019-04-03T06:45:24.059Z,100635.55
2019-04-03T06:47:32.925Z,100639.69
2019-04-03T06:49:41.125Z,100638.13
2019-04-03T06:51:49.352Z,100643.45
2019-04-03T06:53:59.545Z,100640.45
2019-04-03T06:56:08.638Z,100640.73
2019-04-03T06:58:15.950Z,100645.41
2019-04-03T07:00:23.524Z,100641.77
2019-04-03T07:02:32.313Z,100648.54
2019-04-03T07:04:40.137Z,100647.35
2019-04-03T07:06:47.861Z,100644.94
2019-04-03T07:08:55.294Z,100646.94
2019-04-03T07:11:02.896Z,100637.66
2019-04-03T07:13:10.620Z,100639.90
2019-04-03T07:15:18.071Z,100637.55
2019-04-03T07:17:26.376Z,100630.13
2019-04-03T07:19:34.281Z,100645.84
2019-04-03T07:21:41.831Z,100628.02
2019-04-03T07:23:50.178Z,100633.45
2019-04-03T07:25:57.554Z,100627.66
2019-04-03T07:28:05.130Z,100627.66
2019-04-03T07:30:16.648Z,100632.30
2019-04-03T07:32:24.896Z,100631.75
2019-04-03T07:34:34.254Z,100632.12
2019-04-03T07:36:44.496Z,100626.36
2019-04-03T07:38:50.464Z,100632.92
2019-04-03T07:40:57.888Z,100628.96
2019-04-03T07:43:07.731Z,100624.19
2019-04-03T07:45:16.563Z,100626.22
2019-04-03T07:47:24.379Z,100622.86
2019-04-03T07:49:32.003Z,100615.78
2019-04-03T07:51:39.411Z,100624.50
2019-04-03T07:53:46.959Z,100620.81
2019-04-03T07:55:55.367Z,100633.94
2019-04-03T07:58:03.507Z,100623.56
2019-04-03T08:00:12.648Z,100626.34
2019-04-03T08:02:20.162Z,100626.41
2019-04-03T08:04:27.714Z,100625.94
2019-04-03T08:06:36.355Z,100636.24
2019-04-03T08:08:43.949Z,100634.34
2019-04-03T08:10:51.559Z,100637.33
2019-04-03T08:12:59.888Z,100637.58
2019-04-03T08:15:12.744Z,100644.75
2019-04-03T08:17:19.547Z,100628.16
2019-04-03T08:19:27.079Z,100642.66
2019-04-03T08:21:34.471Z,100641.63
2019-04-03T08:23:42.019Z,100638.30
2019-04-03T08:25:49.408Z,100631.37
2019-04-03T08:27:57.080Z,100639.59
2019-04-03T08:30:07.561Z,100637.02
2019-04-03T08:32:16.166Z,100630.19
2019-04-03T08:34:23.334Z,100628.82
2019-04-03T08:36:30.777Z,100624.09
2019-04-03T08:38:39.651Z,100619.28
2019-04-03T08:40:47.488Z,100626.11
2019-04-03T08:42:55.476Z,100633.14
2019-04-03T08:45:05.738Z,100624.84
2019-04-03T08:47:14.301Z,100625.69
2019-04-03T08:49:21.884Z,100625.23
2019-04-03T08:51:29.537Z,100618.14
2019-04-03T08:53:39.610Z,100617.02
2019-04-03T08:55:46.914Z,100613.95
2019-04-03T08:57:54.525Z,100618.70
2019-04-03T09:00:02.067Z,100611.91
2019-04-03T09:02:12.646Z,100607.54
2019-04-03T09:04:18.941Z,100607.69
2019-04-03T09:06:26.529Z,100605.86
2019-04-03T09:08:34.247Z,100611.19
2019-04-03T09:10:41.717Z,100599.92
2019-04-03T09:12:49.445Z,100591.27
2019-04-03T09:14:57.831Z,100591.74
2019-04-03T09:17:05.495Z,100595.94
2019-04-03T09:19:12.884Z,100593.28
2019-04-03T09:21:20.632Z,100594.95
2019-04-03T09:23:28.340Z,100600.14
2019-04-03T09:25:35.883Z,100599.80
2019-04-03T09:27:43.319Z,100597.94
2019-04-03T09:29:50.755Z,100597.03
2019-04-03T09:31:58.156Z,100582.25
2019-04-03T09:34:05.659Z,100589.36
2019-04-03T09:36:18.348Z,100583.10
2019-04-03T09:38:25.790Z,100576.72
2019-04-03T09:40:33.252Z,100576.32
2019-04-03T09:42:40.829Z,100576.12
2019-04-03T09:44:48.417Z,100568.55
2019-04-03T09:46:55.814Z,100566.69
2019-04-03T09:49:03.484Z,100566.49
2019-04-03T09:51:11.289Z,100563.28
2019-04-03T09:53:19.636Z,100557.02
2019-04-03T09:55:27.144Z,100550.41
2019-04-03T09:57:34.625Z,100550.77
2019-04-03T09:59:42.074Z,100559.30
2019-04-03T10:01:49.570Z,100555.86
2019-04-03T10:03:56.989Z,100550.41
2019-04-03T10:06:04.874Z,100548.70
2019-04-03T10:08:12.593Z,100538.65
2019-04-03T10:10:21.706Z,100532.17
2019-04-03T10:12:31.775Z,100533.55
2019-04-03T10:14:38.327Z,100527.02
2019-04-03T10:16:45.784Z,100524.98
2019-04-03T10:18:53.204Z,100519.26
2019-04-03T10:21:00.625Z,100520.83
2019-04-03T10:23:08.004Z,100521.93
2019-04-03T10:25:15.692Z,100520.30
2019-04-03T10:27:23.452Z,100507.62
2019-04-03T10:29:30.973Z,100517.52
2019-04-03T10:31:38.469Z,100509.54
2019-04-03T10:33:45.973Z,100507.55
2019-04-03T10:35:53.579Z,100510.02
2019-04-03T10:38:01.019Z,100504.77
2019-04-03T10:40:09.410Z,100512.11
2019-04-03T10:42:16.864Z,100504.03
2019-04-03T10:44:24.373Z,100495.35
2019-04-03T10:46:32.040Z,100494.05
2019-04-03T10:48:39.620Z,100489.91
2019-04-03T10:50:47.069Z,100485.48
2019-04-03T10:52:54.484Z,100481.64
2019-04-03T10:55:01.871Z,100484.37
2019-04-03T10:57:09.685Z,100482.11
2019-04-03T10:59:18.486Z,100481.09
2019-04-03T11:01:26.638Z,100485.73
2019-04-03T11:03:34.163Z,100475.23
2019-04-03T11:05:41.819Z,100475.38
2019-04-03T11:07:49.238Z,100463.36
2019-04-03T11:09:56.641Z,100466.16
2019-04-03T11:12:04.307Z,100464.94
2019-04-03T11:14:11.897Z,100464.10
2019-04-03T11:16:19.300Z,100459.38
2019-04-03T11:18:27.051Z,100460.45
2019-04-03T11:20:35.782Z,100453.59
2019-04-03T11:22:43.931Z,100450.53
2019-04-03T11:24:51.848Z,100451.13
2019-04-03T11:26:59.594Z,100444.14
2019-04-03T11:29:09.908Z,100447.27
2019-04-03T11:31:26.217Z,100449.26
2019-04-03T11:33:25.599Z,100445.38
2019-04-03T11:35:33.183Z,100438.05
2019-04-03T11:37:40.594Z,100435.70
2019-04-03T11:39:52.021Z,100424.73
2019-04-03T11:41:57.276Z,100429.48
2019-04-03T11:44:05.103Z,100426.30
2019-04-03T11:46:12.737Z,100426.69
2019-04-03T11:48:20.294Z,100423.24
2019-04-03T11:50:27.937Z,100416.20
2019-04-03T11:52:35.589Z,100410.73
2019-04-03T11:54:45.532Z,100411.77
2019-04-03T11:56:55.872Z,100409.94
2019-04-03T11:59:02.183Z,100406.11
2019-04-03T12:01:10.968Z,100402.38
2019-04-03T12:03:18.680Z,100387.80
2019-04-03T12:05:26.446Z,100394.80
2019-04-03T12:07:34.034Z,100392.00
2019-04-03T12:09:41.634Z,100378.25
2019-04-03T12:11:50.199Z,100385.20
2019-04-03T12:13:57.664Z,100391.61
2019-04-03T12:16:05.167Z,100388.05
2019-04-03T12:18:12.913Z,100379.80
2019-04-03T12:20:20.610Z,100380.23
2019-04-03T12:22:28.505Z,100373.45
2019-04-03T12:24:36.268Z,100375.55
2019-04-03T12:26:44.256Z,100375.36
2019-04-03T12:28:52.636Z,100377.33
2019-04-03T12:31:00.335Z,100381.75
2019-04-03T12:33:07.975Z,100377.92
2019-04-03T12:35:15.871Z,100368.86
2019-04-03T12:37:25.045Z,100371.01
2019-04-03T12:39:33.037Z,100366.48
2019-04-03T12:41:42.827Z,100365.02
2019-04-03T12:43:50.739Z,100361.12
2019-04-03T12:46:02.273Z,100359.78
2019-04-03T12:48:07.997Z,100358.41
2019-04-03T12:50:17.242Z,100356.39
2019-04-03T12:52:24.779Z,100353.59
2019-04-03T12:54:32.331Z,100345.78
2019-04-03T12:56:40.351Z,100350.13
2019-04-03T12:58:47.914Z,100338.34
2019-04-03T13:00:55.309Z,100344.73
2019-04-03T13:03:02.873Z,100343.94
2019-04-03T13:05:11.559Z,100341.02
2019-04-03T13:07:19.410Z,100341.06
2019-04-03T13:09:26.886Z,100333.22
2019-04-03T13:11:34.315Z,100327.95
2019-04-03T13:13:42.375Z,100328.39
2019-04-03T13:15:49.879Z,100320.00
2019-04-03T13:17:57.620Z,100322.11
2019-04-03T13:20:06.544Z,100320.00
2019-04-03T13:22:14.821Z,100326.30
2019-04-03T13:24:23.612Z,100325.15
2019-04-03T13:26:31.044Z,100332.28
2019-04-03T13:28:40.416Z,100318.36
2019-04-03T13:30:48.463Z,100318.67
2019-04-03T13:32:59.703Z,100318.75
2019-04-03T13:35:06.359Z,100322.98
2019-04-03T13:37:14.353Z,100319.16
2019-04-03T13:39:21.994Z,100325.88
2019-04-03T13:41:29.550Z,100314.38
2019-04-03T13:43:37.150Z,100312.95
2019-04-03T13:45:44.803Z,100308.00
2019-04-03T13:47:52.283Z,100317.59
2019-04-03T13:50:02.218Z,100309.90
2019-04-03T13:52:09.975Z,100307.41
2019-04-03T13:54:18.351Z,100301.67
2019-04-03T13:56:43.978Z,100296.75
2019-04-03T13:58:53.942Z,100297.23
2019-04-03T14:01:02.763Z,100298.56
2019-04-03T14:03:10.111Z,100292.48
2019-04-03T14:05:17.766Z,100292.24
2019-04-03T14:07:25.520Z,100289.93
2019-04-03T14:09:33.008Z,100292.24
2019-04-03T14:11:40.438Z,100285.07
2019-04-03T14:13:48.751Z,100274.02
2019-04-03T14:15:56.816Z,100280.16
2019-04-03T14:18:04.348Z,100283.41
2019-04-03T14:20:14.525Z,100284.35
2019-04-03T14:22:22.066Z,100285.95
2019-04-03T14:24:39.256Z,100281.63
2019-04-03T14:26:38.844Z,100281.34
2019-04-03T14:28:46.421Z,100275.24
2019-04-03T14:30:54.088Z,100276.23
2019-04-03T14:33:01.937Z,100274.16
2019-04-03T14:35:41.241Z,100270.63
2019-04-03T14:37:24.448Z,100270.74
2019-04-03T14:39:28.720Z,100264.20
2019-04-03T14:41:36.434Z,100264.53
2019-04-03T14:43:43.984Z,100260.67
2019-04-03T14:45:51.715Z,100260.02
2019-04-03T14:47:59.605Z,100259.66
2019-04-03T14:50:09.084Z,100260.91
2019-04-03T14:52:17.613Z,100260.22
2019-04-03T14:54:25.788Z,100256.23
2019-04-03T14:56:34.158Z,100253.38
2019-04-03T14:58:42.541Z,100253.95
2019-04-03T15:00:50.697Z,100257.78
2019-04-03T15:02:58.766Z,100253.61
2019-04-03T15:05:08.529Z,100253.05
2019-04-03T15:07:17.880Z,100253.84
2019-04-03T15:09:26.992Z,100246.00
2019-04-03T15:11:35.681Z,100242.45
2019-04-03T15:13:43.478Z,100247.72
2019-04-03T15:15:51.198Z,100252.71
2019-04-03T15:17:59.095Z,100251.34
2019-04-03T15:20:08.285Z,100250.01
2019-04-03T15:22:15.893Z,100244.11
2019-04-03T15:24:23.489Z,100252.28
2019-04-03T15:26:31.467Z,100250.80
2019-04-03T15:28:39.372Z,100244.42
2019-04-03T15:30:47.421Z,100239.69
2019-04-03T15:32:55.801Z,100243.55
2019-04-03T15:35:03.478Z,100243.17
2019-04-03T15:37:13.909Z,100239.31
2019-04-03T15:39:21.581Z,100236.25
2019-04-03T15:41:33.067Z,100239.86
2019-04-03T15:43:38.546Z,100236.16
2019-04-03T15:45:46.512Z,100237.99
2019-04-03T15:47:57.110Z,100241.72
2019-04-03T15:50:03.564Z,100234.98
2019-04-03T15:52:12.038Z,100237.80
2019-04-03T15:54:20.401Z,100234.47
2019-04-03T15:56:27.971Z,100232.56
2019-04-03T15:58:35.454Z,100240.55
2019-04-03T16:00:43.451Z,100231.98
2019-04-03T16:02:51.285Z,100235.20
2019-04-03T16:04:59.939Z,100228.64
2019-04-03T16:07:08.789Z,100229.77
2019-04-03T16:09:18.338Z,100228.95
2019-04-03T16:11:27.011Z,100226.55
2019-04-03T16:13:35.118Z,100226.34
2019-04-03T16:15:42.604Z,100217.41
2019-04-03T16:17:50.086Z,100218.09
2019-04-03T16:19:57.901Z,100227.63
2019-04-03T16:22:05.947Z,100218.62
2019-04-03T16:24:14.044Z,100227.02
2019-04-03T16:26:24.310Z,100230.77
2019-04-03T16:28:33.721Z,100224.72
2019-04-03T16:30:40.458Z,100224.85
2019-04-03T16:32:48.361Z,100222.07
2019-04-03T16:34:55.873Z,100220.30
2019-04-03T16:37:03.497Z,100218.84
2019-04-03T16:39:11.414Z,100213.45
2019-04-03T16:41:18.968Z,100215.44
2019-04-03T16:43:26.610Z,100205.82
2019-04-03T16:45:36.731Z,100211.14
2019-04-03T16:47:45.000Z,100218.11
2019-04-03T16:49:54.877Z,100217.55
2019-04-03T16:52:04.200Z,100214.30
2019-04-03T16:54:12.662Z,100213.23
2019-04-03T16:56:20.448Z,100212.66
2019-04-03T16:58:27.974Z,100209.09
2019-04-03T17:00:35.852Z,100215.52
2019-04-03T17:02:43.758Z,100209.50
2019-04-03T17:04:51.503Z,100207.20
2019-04-03T17:06:59.365Z,100219.69
2019-04-03T17:09:09.336Z,100216.66
2019-04-03T17:11:16.905Z,100221.48
2019-04-03T17:13:24.448Z,100219.02
2019-04-03T17:15:34.172Z,100214.77
2019-04-03T17:17:44.722Z,100223.47
2019-04-03T17:19:51.776Z,100224.39
2019-04-03T17:21:59.702Z,100225.35
2019-04-03T17:24:07.376Z,100226.67
2019-04-03T17:26:15.044Z,100224.57
2019-04-03T17:28:23.171Z,100229.57
2019-04-03T17:30:31.857Z,100230.14
2019-04-03T17:32:39.997Z,100228.81
2019-04-03T17:34:47.650Z,100227.89
2019-04-03T17:36:55.479Z,100233.45
2019-04-03T17:39:06.077Z,100221.93
2019-04-03T17:41:14.728Z,100230.77
2019-04-03T17:43:22.527Z,100231.13
2019-04-03T17:45:30.369Z,100229.23
2019-04-03T17:47:38.305Z,100233.08
2019-04-03T17:49:46.338Z,100232.31
2019-04-03T17:51:53.848Z,100231.47
2019-04-03T17:54:01.637Z,100226.54
2019-04-03T17:56:12.335Z,100240.50
2019-04-03T17:58:18.819Z,100232.17
2019-04-03T18:00:27.139Z,100233.28
2019-04-03T18:02:34.975Z,100231.25
2019-04-03T18:04:42.972Z,100231.14
2019-04-03T18:06:50.955Z,100232.36
2019-04-03T18:08:58.549Z,100226.89
2019-04-03T18:11:06.086Z,100234.31
2019-04-03T18:13:13.779Z,100238.91
2019-04-03T18:15:21.498Z,100240.13
2019-04-03T18:17:29.932Z,100247.26
2019-04-03T18:19:41.507Z,100243.59
2019-04-03T18:21:48.829Z,100236.57
2019-04-03T18:23:57.168Z,100244.27
2019-04-03T18:26:05.607Z,100235.73
2019-04-03T18:28:13.540Z,100234.30
2019-04-03T18:30:22.041Z,100244.67
2019-04-03T18:32:29.978Z,100233.05
2019-04-03T18:34:37.728Z,100231.44
2019-04-03T18:36:45.826Z,100238.50
2019-04-03T18:38:54.051Z,100231.77
2019-04-03T18:41:03.986Z,100234.18
2019-04-03T18:43:10.987Z,100235.58
2019-04-03T18:45:25.084Z,100237.16
2019-04-03T18:47:40.400Z,100235.22
2019-04-03T18:49:38.232Z,100238.41
2019-04-03T18:51:45.865Z,100231.08
2019-04-03T18:53:53.589Z,100231.62
2019-04-03T18:56:01.221Z,100224.30
2019-04-03T18:58:09.006Z,100228.48
2019-04-03T19:00:17.549Z,100223.72
2019-04-03T19:02:25.283Z,100219.70
2019-04-03T19:04:32.863Z,100225.30
2019-04-03T19:06:40.467Z,100228.52
2019-04-03T19:08:50.143Z,100228.88
2019-04-03T19:11:02.193Z,100228.08
2019-04-03T19:13:06.934Z,100233.53
2019-04-03T19:15:16.059Z,100230.93
2019-04-03T19:17:24.855Z,100228.22
2019-04-03T19:19:33.210Z,100229.12
2019-04-03T19:21:40.826Z,100227.01
2019-04-03T19:23:50.002Z,100231.76
2019-04-03T19:25:58.120Z,100225.24
2019-04-03T19:28:07.334Z,100231.95
2019-04-03T19:30:15.539Z,100223.63
2019-04-03T19:32:23.168Z,100237.17
2019-04-03T19:34:30.896Z,100236.30
2019-04-03T19:36:38.352Z,100232.30
2019-04-03T19:38:46.218Z,100233.77
2019-04-03T19:40:53.808Z,100233.47
2019-04-03T19:43:01.740Z,100236.13
2019-04-03T19:45:12.966Z,100233.49
2019-04-03T19:47:20.515Z,100234.04
2019-04-03T19:49:28.232Z,100230.16
2019-04-03T19:51:37.518Z,100224.99
2019-04-03T19:53:58.408Z,100219.09
2019-04-03T19:55:55.363Z,100229.22
2019-04-03T19:58:03.965Z,100229.19
2019-04-03T20:00:12.640Z,100228.42
2019-04-03T20:02:20.355Z,100226.33
2019-04-03T20:04:28.309Z,100220.53
2019-04-03T20:06:36.627Z,100228.67
2019-04-03T20:08:44.375Z,100210.63
2019-04-03T20:10:51.927Z,100222.22
2019-04-03T20:12:59.538Z,100225.41
2019-04-03T20:15:07.732Z,100221.62
2019-04-03T20:17:15.374Z,100224.80
2019-04-03T20:19:22.974Z,100225.11
2019-04-03T20:21:34.022Z,100225.95
2019-04-03T20:23:42.576Z,100226.73
2019-04-03T20:25:50.294Z,100226.50
2019-04-03T20:27:58.273Z,100222.42
2019-04-03T20:30:06.664Z,100217.16
2019-04-03T20:32:14.348Z,100217.16
2019-04-03T20:34:22.187Z,100222.31
2019-04-03T20:36:29.822Z,100217.38
2019-04-03T20:38:37.336Z,100212.20
2019-04-03T20:40:45.471Z,100224.11
2019-04-03T20:42:53.046Z,100218.71
2019-04-03T20:45:00.731Z,100213.82
2019-04-03T20:47:08.499Z,100215.20
2019-04-03T20:49:16.242Z,100212.51
2019-04-03T20:51:23.845Z,100216.69
2019-04-03T20:53:31.344Z,100209.57
2019-04-03T20:55:38.825Z,100211.90
2019-04-03T20:57:55.377Z,100215.84
2019-04-03T21:00:02.127Z,100214.97
2019-04-03T21:02:07.998Z,100209.34
2019-04-03T21:04:15.626Z,100212.14
2019-04-03T21:06:24.062Z,100219.80
2019-04-03T21:08:31.891Z,100213.89
2019-04-03T21:10:39.873Z,100210.05
2019-04-03T21:12:47.359Z,100209.94
2019-04-03T21:15:07.374Z,100206.23
2019-04-03T21:17:04.165Z,100204.68
2019-04-03T21:19:11.675Z,100197.95
2019-04-03T21:21:19.667Z,100205.92
2019-04-03T21:23:27.259Z,100200.29
2019-04-03T21:25:36.571Z,100199.64
2019-04-03T21:27:44.297Z,100206.14
2019-04-03T21:29:51.895Z,100199.09
2019-04-03T21:31:59.558Z,100196.34
2019-04-03T21:34:07.250Z,100192.45
2019-04-03T21:36:14.812Z,100193.55
2019-04-03T21:38:22.818Z,100194.33
2019-04-03T21:40:31.072Z,100195.14
2019-04-03T21:42:38.556Z,100194.50
2019-04-03T21:44:46.318Z,100191.78
2019-04-03T21:46:53.922Z,100182.13
2019-04-03T21:49:01.754Z,100181.34
2019-04-03T21:51:09.370Z,100192.94
2019-04-03T21:53:16.859Z,100178.93
2019-04-03T21:55:24.373Z,100176.55
2019-04-03T21:57:31.988Z,100174.20
2019-04-03T21:59:39.851Z,100179.75
2019-04-03T22:01:49.011Z,100172.05
2019-04-03T22:03:56.625Z,100169.24
2019-04-03T22:06:04.077Z,100166.98
2019-04-03T22:08:11.598Z,100169.30
2019-04-03T22:10:19.202Z,100175.86
2019-04-03T22:12:26.614Z,100181.00
2019-04-03T22:14:34.053Z,100180.36
2019-04-03T22:16:41.415Z,100178.03
2019-04-03T22:18:48.940Z,100176.10
2019-04-03T22:20:56.565Z,100186.84
2019-04-03T22:23:04.877Z,100183.20
2019-04-03T22:25:13.161Z,100178.11
2019-04-03T22:27:20.584Z,100175.08
2019-04-03T22:29:28.167Z,100175.02
2019-04-03T22:31:35.623Z,100172.36
2019-04-03T22:33:43.036Z,100173.73
2019-04-03T22:35:50.550Z,100173.08
2019-04-03T22:37:57.992Z,100175.02
2019-04-03T22:40:06.068Z,100170.27
2019-04-03T22:42:15.045Z,100165.83
2019-04-03T22:44:22.542Z,100167.30
2019-04-03T22:46:29.987Z,100161.42
2019-04-03T22:48:37.437Z,100170.02
2019-04-03T22:50:44.864Z,100172.33
2019-04-03T22:52:52.271Z,100164.58
2019-04-03T22:54:59.659Z,100167.20
2019-04-03T22:57:07.084Z,100168.48
2019-04-03T22:59:14.481Z,100174.27
2019-04-03T23:01:24.754Z,100166.92
2019-04-03T23:03:33.888Z,100167.47
2019-04-03T23:05:41.419Z,100170.66
2019-04-03T23:07:51.674Z,100170.29
2019-04-03T23:09:58.875Z,100168.84
2019-04-03T23:12:06.372Z,100172.36
2019-04-03T23:14:13.847Z,100174.93
2019-04-03T23:16:21.257Z,100168.47
2019-04-03T23:18:28.686Z,100166.09
2019-04-03T23:20:36.056Z,100166.52
2019-04-03T23:22:43.503Z,100160.61
2019-04-03T23:24:50.925Z,100159.25
2019-04-03T23:26:58.377Z,100164.23
2019-04-03T23:29:05.909Z,100160.88
2019-04-03T23:31:13.617Z,100162.55
2019-04-03T23:33:21.203Z,100166.13
2019-04-03T23:35:28.601Z,100156.88
2019-04-03T23:37:35.941Z,100159.46
2019-04-03T23:39:43.305Z,100153.31
2019-04-03T23:41:50.698Z,100151.22
2019-04-03T23:43:58.121Z,100154.05
2019-04-03T23:46:05.599Z,100147.66
2019-04-03T23:48:12.997Z,100154.38
2019-04-03T23:50:22.017Z,100147.64
2019-04-03T23:52:29.969Z,100146.13
2019-04-03T23:54:38.066Z,100149.33
2019-04-03T23:56:45.443Z,100150.27
2019-04-03T23:58:52.795Z,100144.14
